createdAt,value
2019-01-24T00:00:03.720Z,76.50
2019-01-24T00:02:30.337Z,76.60
2019-01-24T00:04:56.967Z,77.60
2019-01-24T00:07:23.621Z,76.70
2019-01-24T00:09:50.236Z,77.00
2019-01-24T00:12:16.893Z,76.50
2019-01-24T00:14:43.520Z,77.70
2019-01-24T00:17:10.183Z,78.20
2019-01-24T00:19:36.844Z,77.10
2019-01-24T00:22:03.860Z,76.40
2019-01-24T00:24:30.512Z,76.40
2019-01-24T00:26:57.139Z,76.10
2019-01-24T00:29:23.811Z,75.40
2019-01-24T00:31:50.449Z,75.20
2019-01-24T00:34:23.053Z,75.40
2019-01-24T00:36:45.541Z,77.50
2019-01-24T00:39:12.163Z,76.40
2019-01-24T00:41:38.842Z,75.80
2019-01-24T00:44:05.501Z,76.10
2019-01-24T00:46:32.167Z,76.80
2019-01-24T00:48:58.788Z,76.80
2019-01-24T00:51:25.459Z,76.40
2019-01-24T00:53:52.124Z,77.20
2019-01-24T00:56:18.760Z,76.70
2019-01-24T00:58:45.420Z,76.10
2019-01-24T01:01:12.064Z,76.20
2019-01-24T01:03:38.740Z,76.10
2019-01-24T01:06:05.527Z,76.40
2019-01-24T01:08:33.162Z,75.70
2019-01-24T01:10:59.836Z,75.80
2019-01-24T01:13:26.451Z,75.50
2019-01-24T01:15:53.108Z,75.40
2019-01-24T01:18:19.735Z,75.70
2019-01-24T01:20:46.347Z,76.00
2019-01-24T01:23:13.019Z,75.50
2019-01-24T01:25:39.650Z,75.40
2019-01-24T01:28:06.343Z,75.20
2019-01-24T01:30:32.967Z,75.00
2019-01-24T01:32:59.647Z,75.40
2019-01-24T01:35:26.287Z,75.30
2019-01-24T01:37:52.959Z,75.00
2019-01-24T01:40:19.698Z,76.80
2019-01-24T01:42:47.056Z,76.30
2019-01-24T01:45:18.776Z,76.00
2019-01-24T01:47:45.892Z,76.00
2019-01-24T01:50:16.214Z,76.70
2019-01-24T01:52:42.850Z,76.20
2019-01-24T01:55:10.407Z,75.50
2019-01-24T01:57:38.264Z,75.40
2019-01-24T02:00:11.308Z,75.00
2019-01-24T02:02:38.120Z,75.00
2019-01-24T02:05:07.281Z,75.10
2019-01-24T02:07:33.951Z,77.90
2019-01-24T02:12:36.267Z,79.70
2019-01-24T02:15:05.887Z,79.00
2019-01-24T02:17:32.577Z,78.80
2019-01-24T02:19:59.195Z,79.10
2019-01-24T02:22:25.920Z,79.30
2019-01-24T02:24:52.609Z,80.20
2019-01-24T02:27:19.224Z,82.10
2019-01-24T02:29:45.987Z,81.30
2019-01-24T02:32:12.623Z,81.70
2019-01-24T02:34:39.300Z,80.90
2019-01-24T02:37:05.941Z,79.10
2019-01-24T02:39:32.600Z,79.70
2019-01-24T02:41:59.320Z,77.90
2019-01-24T02:44:25.940Z,78.20
2019-01-24T02:46:52.623Z,79.10
2019-01-24T02:49:19.243Z,78.90
2019-01-24T02:51:45.926Z,78.50
2019-01-24T02:54:12.575Z,78.70
2019-01-24T02:56:39.211Z,77.90
2019-01-24T02:59:05.868Z,77.20
2019-01-24T03:01:32.541Z,77.40
2019-01-24T03:03:59.212Z,76.80
2019-01-24T03:06:25.813Z,76.50
2019-01-24T03:08:52.499Z,77.20
2019-01-24T03:11:19.203Z,76.50
2019-01-24T03:13:45.946Z,75.80
2019-01-24T03:16:12.639Z,75.30
2019-01-24T03:18:39.308Z,76.20
2019-01-24T03:21:06.061Z,78.70
2019-01-24T03:23:32.670Z,78.30
2019-01-24T03:25:59.377Z,77.70
2019-01-24T03:28:25.999Z,78.10
2019-01-24T03:30:52.717Z,78.10
2019-01-24T03:33:19.316Z,79.30
2019-01-24T03:35:45.960Z,77.90
2019-01-24T03:38:12.616Z,77.70
2019-01-24T03:40:39.241Z,78.50
2019-01-24T03:43:05.931Z,79.20
2019-01-24T03:45:32.544Z,78.20
2019-01-24T03:47:59.193Z,79.20
2019-01-24T03:50:25.815Z,77.70
2019-01-24T03:52:52.527Z,77.00
2019-01-24T03:55:20.270Z,78.20
2019-01-24T03:57:46.984Z,78.30
2019-01-24T04:00:18.637Z,78.80
2019-01-24T04:02:45.256Z,79.70
2019-01-24T04:05:12.640Z,78.30
2019-01-24T04:07:40.219Z,77.00
2019-01-24T04:10:12.278Z,77.00
2019-01-24T04:12:38.955Z,75.90
2019-01-24T04:15:11.780Z,77.70
2019-01-24T04:17:38.554Z,77.90
2019-01-24T04:20:07.580Z,78.00
2019-01-24T04:22:34.250Z,76.20
2019-01-24T04:25:00.888Z,76.30
2019-01-24T04:27:27.593Z,77.60
2019-01-24T04:29:54.289Z,76.00
2019-01-24T04:32:20.916Z,76.80
2019-01-24T04:34:47.588Z,76.30
2019-01-24T04:37:14.204Z,75.50
2019-01-24T04:39:40.857Z,75.50
2019-01-24T04:42:07.519Z,76.10
2019-01-24T04:44:34.167Z,75.70
2019-01-24T04:47:00.828Z,75.60
2019-01-24T04:49:27.453Z,75.90
2019-01-24T04:51:54.129Z,75.30
2019-01-24T04:54:20.825Z,75.40
2019-01-24T04:56:47.485Z,77.10
2019-01-24T04:59:14.135Z,77.20
2019-01-24T05:01:40.788Z,77.40
2019-01-24T05:04:07.401Z,76.00
2019-01-24T05:06:34.056Z,75.80
2019-01-24T05:09:00.756Z,75.10
2019-01-24T05:11:27.377Z,74.70
2019-01-24T05:13:54.192Z,74.80
2019-01-24T05:16:20.837Z,76.20
2019-01-24T05:18:47.500Z,76.40
2019-01-24T05:21:14.150Z,76.00
2019-01-24T05:23:40.771Z,75.80
2019-01-24T05:26:07.531Z,74.90
2019-01-24T05:28:34.153Z,74.80
2019-01-24T05:31:00.807Z,74.80
2019-01-24T05:33:27.557Z,76.50
2019-01-24T05:35:54.207Z,76.70
2019-01-24T05:38:20.828Z,76.20
2019-01-24T05:40:47.508Z,75.20
2019-01-24T05:43:14.144Z,75.30
2019-01-24T05:45:40.816Z,75.40
2019-01-24T05:48:07.493Z,74.50
2019-01-24T05:50:34.171Z,74.70
2019-01-24T05:53:00.826Z,75.40
2019-01-24T05:55:27.692Z,75.20
2019-01-24T05:57:54.455Z,75.30
2019-01-24T06:00:23.297Z,76.50
2019-01-24T06:02:49.872Z,76.40
2019-01-24T06:05:16.971Z,77.30
2019-01-24T06:07:43.643Z,76.90
2019-01-24T06:10:14.849Z,75.90
2019-01-24T06:12:41.647Z,75.00
2019-01-24T06:15:14.449Z,75.20
2019-01-24T06:17:41.026Z,76.10
2019-01-24T06:20:09.406Z,75.60
2019-01-24T06:22:36.047Z,76.10
2019-01-24T06:25:05.340Z,76.30
2019-01-24T06:27:31.981Z,75.30
2019-01-24T06:29:58.596Z,75.60
2019-01-24T06:32:25.456Z,74.80
2019-01-24T06:34:54.079Z,74.50
2019-01-24T06:37:20.695Z,74.40
2019-01-24T06:39:47.316Z,74.80
2019-01-24T06:42:14.000Z,74.10
2019-01-24T06:44:40.848Z,75.40
2019-01-24T06:47:07.508Z,74.90
2019-01-24T06:49:34.187Z,75.30
2019-01-24T06:52:00.856Z,74.60
2019-01-24T06:54:27.629Z,74.50
2019-01-24T06:56:54.601Z,73.90
2019-01-24T06:59:21.372Z,74.40
2019-01-24T07:01:47.991Z,76.10
2019-01-24T07:04:14.680Z,75.80
2019-01-24T07:06:41.297Z,75.70
2019-01-24T07:09:07.956Z,75.00
2019-01-24T07:11:34.628Z,74.90
2019-01-24T07:14:01.301Z,74.70
2019-01-24T07:16:28.114Z,75.50
2019-01-24T07:18:54.723Z,76.30
2019-01-24T07:21:21.388Z,75.90
2019-01-24T07:23:47.999Z,77.30
2019-01-24T07:26:14.616Z,77.30
2019-01-24T07:28:41.283Z,76.90
2019-01-24T07:31:07.888Z,76.90
2019-01-24T07:33:34.552Z,76.30
2019-01-24T07:36:02.301Z,75.30
2019-01-24T07:38:29.219Z,75.20
2019-01-24T07:40:55.853Z,74.40
2019-01-24T07:43:22.525Z,75.60
2019-01-24T07:45:49.164Z,76.50
2019-01-24T07:48:15.825Z,76.40
2019-01-24T07:50:42.486Z,76.90
2019-01-24T07:53:09.145Z,76.30
2019-01-24T07:55:35.825Z,76.30
2019-01-24T07:58:03.344Z,75.90
2019-01-24T08:00:30.325Z,76.10
2019-01-24T08:02:56.949Z,75.70
2019-01-24T08:05:25.482Z,76.20
2019-01-24T08:07:52.233Z,77.30
2019-01-24T08:10:20.421Z,77.60
2019-01-24T08:12:47.123Z,77.20
2019-01-24T08:15:15.689Z,77.10
2019-01-24T08:17:42.469Z,77.60
2019-01-24T08:20:12.100Z,77.20
2019-01-24T08:22:38.802Z,77.30
2019-01-24T08:25:07.532Z,77.40
2019-01-24T08:27:34.158Z,76.50
2019-01-24T08:30:01.053Z,76.20
2019-01-24T08:32:27.669Z,76.60
2019-01-24T08:34:54.450Z,77.00
2019-01-24T08:37:21.105Z,77.40
2019-01-24T08:39:47.765Z,76.90
2019-01-24T08:42:14.409Z,77.10
2019-01-24T08:44:41.059Z,76.80
2019-01-24T08:47:07.794Z,77.90
2019-01-24T08:49:34.460Z,78.00
2019-01-24T08:52:01.159Z,77.70
2019-01-24T08:54:27.796Z,77.60
2019-01-24T08:56:54.465Z,77.90
2019-01-24T08:59:21.085Z,78.40
2019-01-24T09:01:47.781Z,78.00
2019-01-24T09:04:14.426Z,79.50
2019-01-24T09:06:41.167Z,78.60
2019-01-24T09:09:08.225Z,78.00
2019-01-24T09:11:34.874Z,79.40
2019-01-24T09:14:01.654Z,79.90
2019-01-24T09:16:28.374Z,78.60
2019-01-24T09:18:55.016Z,78.90
2019-01-24T09:21:21.693Z,79.20
2019-01-24T09:23:48.326Z,79.20
2019-01-24T09:26:15.115Z,80.50
2019-01-24T09:28:41.749Z,80.20
2019-01-24T09:31:08.430Z,79.60
2019-01-24T09:33:35.085Z,80.30
2019-01-24T09:36:01.702Z,81.00
2019-01-24T09:38:28.365Z,80.40
2019-01-24T09:40:55.003Z,80.40
2019-01-24T09:43:22.532Z,79.80
2019-01-24T09:45:49.104Z,80.30
2019-01-24T09:48:15.764Z,80.70
2019-01-24T09:50:42.496Z,81.10
2019-01-24T09:53:09.176Z,80.60
2019-01-24T09:55:35.869Z,81.50
2019-01-24T09:58:02.977Z,81.70
2019-01-24T10:00:31.840Z,80.90
2019-01-24T10:02:58.467Z,79.50
2019-01-24T10:05:26.361Z,80.30
2019-01-24T10:07:53.277Z,81.20
2019-01-24T10:10:24.772Z,81.70
2019-01-24T10:12:52.050Z,80.90
2019-01-24T10:15:20.084Z,80.20
2019-01-24T10:17:46.840Z,81.20
2019-01-24T10:20:15.513Z,81.60
2019-01-24T10:22:42.270Z,81.40
2019-01-24T10:25:12.038Z,80.30
2019-01-24T10:27:38.673Z,79.80
2019-01-24T10:30:09.025Z,79.80
2019-01-24T10:32:35.705Z,81.20
2019-01-24T10:35:04.547Z,79.80
2019-01-24T10:37:31.186Z,80.40
2019-01-24T10:39:57.854Z,81.50
2019-01-24T10:42:24.493Z,80.50
2019-01-24T10:44:51.165Z,79.90
2019-01-24T10:47:17.806Z,80.30
2019-01-24T10:49:44.442Z,80.50
2019-01-24T10:52:11.149Z,80.70
2019-01-24T10:54:37.782Z,80.80
2019-01-24T10:57:04.666Z,81.60
2019-01-24T10:59:31.278Z,80.20
2019-01-24T11:01:58.073Z,81.00
2019-01-24T11:04:24.694Z,80.10
2019-01-24T11:06:51.429Z,80.90
2019-01-24T11:09:18.101Z,81.50
2019-01-24T11:11:45.176Z,81.30
2019-01-24T11:14:12.795Z,79.90
2019-01-24T11:16:39.636Z,79.20
2019-01-24T11:19:06.389Z,80.80
2019-01-24T11:21:34.317Z,80.50
2019-01-24T11:24:01.109Z,80.20
2019-01-24T11:26:27.739Z,78.50
2019-01-24T11:28:54.587Z,78.80
2019-01-24T11:31:21.240Z,77.90
2019-01-24T11:33:47.917Z,81.50
2019-01-24T11:36:14.553Z,80.50
2019-01-24T11:38:41.250Z,80.70
2019-01-24T11:41:07.900Z,80.30
2019-01-24T11:43:34.529Z,80.80
2019-01-24T11:46:01.306Z,79.70
2019-01-24T11:48:27.977Z,80.50
2019-01-24T11:50:54.654Z,79.20
2019-01-24T11:53:21.341Z,78.90
2019-01-24T11:55:49.238Z,78.60
2019-01-24T11:58:15.878Z,79.90
2019-01-24T12:00:44.398Z,78.80
2019-01-24T12:03:11.177Z,79.00
2019-01-24T12:05:37.881Z,79.00
2019-01-24T12:08:05.232Z,79.90
2019-01-24T12:10:31.885Z,79.70
2019-01-24T12:12:58.662Z,78.60
2019-01-24T12:15:28.046Z,79.10
2019-01-24T12:17:54.720Z,78.20
2019-01-24T12:20:23.091Z,79.40
2019-01-24T12:22:50.011Z,79.70
2019-01-24T12:25:16.678Z,78.30
2019-01-24T12:27:43.412Z,77.30
2019-01-24T12:30:16.250Z,77.60
2019-01-24T12:32:42.928Z,78.00
2019-01-24T12:35:09.558Z,78.70
2019-01-24T12:37:36.238Z,79.10
2019-01-24T12:40:05.570Z,78.70
2019-01-24T12:42:32.236Z,81.00
2019-01-24T12:44:58.864Z,79.30
2019-01-24T12:47:25.637Z,77.80
2019-01-24T12:49:52.262Z,77.70
2019-01-24T12:52:18.928Z,77.70
2019-01-24T12:54:46.750Z,77.70
2019-01-24T12:57:13.490Z,77.60
2019-01-24T12:59:40.606Z,76.30
2019-01-24T13:02:07.269Z,77.70
2019-01-24T13:04:34.033Z,77.30
2019-01-24T13:07:00.769Z,75.90
2019-01-24T13:09:27.458Z,76.60
2019-01-24T13:11:54.088Z,77.10
2019-01-24T13:14:20.782Z,76.20
2019-01-24T13:16:47.446Z,78.20
2019-01-24T13:19:14.137Z,76.90
2019-01-24T13:21:40.777Z,77.00
2019-01-24T13:24:07.517Z,76.20
2019-01-24T13:26:34.206Z,76.20
2019-01-24T13:29:01.001Z,77.50
2019-01-24T13:31:28.661Z,78.30
2019-01-24T13:33:55.262Z,77.60
2019-01-24T13:36:21.922Z,77.60
2019-01-24T13:38:48.558Z,76.90
2019-01-24T13:41:15.334Z,77.80
2019-01-24T13:43:42.098Z,78.50
2019-01-24T13:46:08.816Z,78.20
2019-01-24T13:48:35.501Z,76.70
2019-01-24T13:51:22.012Z,76.20
2019-01-24T13:53:48.784Z,76.60
2019-01-24T13:56:15.390Z,76.00
2019-01-24T13:58:42.075Z,77.50
2019-01-24T14:01:08.713Z,77.20
2019-01-24T14:03:42.095Z,77.60
2019-01-24T14:06:05.423Z,78.10
2019-01-24T14:08:32.129Z,79.10
2019-01-24T14:10:58.838Z,77.70
2019-01-24T14:13:25.485Z,78.30
2019-01-24T14:15:52.158Z,78.30
2019-01-24T14:18:18.788Z,77.30
2019-01-24T14:20:45.429Z,77.30
2019-01-24T14:23:12.096Z,77.40
2019-01-24T14:25:38.819Z,77.70
2019-01-24T14:28:05.579Z,77.80
2019-01-24T14:30:32.244Z,77.70
2019-01-24T14:32:59.022Z,77.30
2019-01-24T14:35:25.635Z,77.70
2019-01-24T14:37:52.345Z,78.60
2019-01-24T14:40:19.002Z,79.50
2019-01-24T14:42:45.741Z,79.40
2019-01-24T14:45:27.307Z,78.80
2019-01-24T14:47:54.135Z,78.50
2019-01-24T14:50:23.033Z,78.60
2019-01-24T14:52:49.764Z,79.10
2019-01-24T14:55:16.481Z,79.10
2019-01-24T14:57:43.309Z,78.70
2019-01-24T15:00:13.879Z,78.80
2019-01-24T15:02:41.379Z,78.70
2019-01-24T15:05:09.467Z,78.90
2019-01-24T15:07:36.139Z,78.50
2019-01-24T15:10:05.721Z,78.10
2019-01-24T15:12:33.437Z,79.20
2019-01-24T15:15:00.096Z,79.50
2019-01-24T15:17:26.849Z,79.70
2019-01-24T15:19:53.622Z,79.60
2019-01-24T15:22:20.386Z,80.00
2019-01-24T15:24:47.044Z,81.00
2019-01-24T15:27:13.784Z,80.50
2019-01-24T15:29:40.465Z,81.10
2019-01-24T15:32:07.100Z,79.70
2019-01-24T15:34:33.741Z,80.10
2019-01-24T15:37:00.423Z,79.20
2019-01-24T15:39:27.057Z,78.60
2019-01-24T15:41:53.777Z,78.90
2019-01-24T15:44:20.448Z,80.10
2019-01-24T15:46:47.078Z,80.30
2019-01-24T15:49:13.745Z,80.50
2019-01-24T15:51:40.590Z,80.00
2019-01-24T15:54:07.341Z,80.00
2019-01-24T15:56:34.002Z,80.10
2019-01-24T15:59:00.731Z,80.50
2019-01-24T16:01:27.350Z,80.50
2019-01-24T16:03:54.018Z,79.80
2019-01-24T16:06:20.678Z,80.70
2019-01-24T16:08:47.317Z,80.40
2019-01-24T16:11:13.978Z,81.20
2019-01-24T16:13:40.641Z,81.90
2019-01-24T16:16:08.460Z,80.70
2019-01-24T16:18:35.091Z,80.90
2019-01-24T16:21:01.773Z,80.60
2019-01-24T16:23:28.396Z,80.60
2019-01-24T16:25:55.723Z,82.10
2019-01-24T16:28:24.850Z,82.10
2019-01-24T16:30:50.795Z,81.30
2019-01-24T16:33:17.428Z,80.70
2019-01-24T16:35:44.158Z,81.10
2019-01-24T16:38:10.938Z,81.70
2019-01-24T16:40:37.564Z,81.70
2019-01-24T16:43:04.428Z,82.50
2019-01-24T16:45:31.064Z,82.70
2019-01-24T16:47:58.077Z,82.90
2019-01-24T16:50:26.296Z,83.20
2019-01-24T16:52:53.073Z,83.30
2019-01-24T16:55:19.948Z,83.50
2019-01-24T16:57:47.874Z,82.90
2019-01-24T17:00:23.861Z,83.30
2019-01-24T17:02:50.596Z,82.50
2019-01-24T17:05:17.362Z,82.30
2019-01-24T17:07:44.017Z,82.10
2019-01-24T17:10:17.027Z,82.30
2019-01-24T17:12:43.695Z,83.00
2019-01-24T17:15:12.524Z,83.00
2019-01-24T17:17:39.197Z,82.50
2019-01-24T17:20:20.277Z,81.70
2019-01-24T17:22:47.059Z,82.90
2019-01-24T17:25:13.676Z,82.40
2019-01-24T17:27:46.134Z,83.20
2019-01-24T17:30:25.965Z,84.00
2019-01-24T17:32:52.912Z,83.90
2019-01-24T17:35:19.533Z,83.00
2019-01-24T17:37:46.282Z,82.40
2019-01-24T17:40:16.340Z,83.70
2019-01-24T17:42:42.996Z,83.60
2019-01-24T17:45:12.778Z,83.30
2019-01-24T17:47:39.456Z,82.60
2019-01-24T17:50:09.438Z,82.70
2019-01-24T17:52:36.100Z,83.30
2019-01-24T17:55:05.757Z,82.70
2019-01-24T17:57:32.431Z,82.00
2019-01-24T17:59:59.060Z,81.70
2019-01-24T18:02:25.818Z,82.10
2019-01-24T18:04:52.519Z,82.30
2019-01-24T18:07:19.135Z,81.50
2019-01-24T18:09:45.833Z,81.60
2019-01-24T18:12:12.569Z,82.80
2019-01-24T18:14:39.225Z,84.50
2019-01-24T18:17:05.884Z,83.70
